sensor_id;sensor_type;location;lat;lon;timestamp;P1;durP1;ratioP1;P2;durP2;ratioP2
27161;SDS011;54464;50.558;9.704;2022-07-30T00:01:09;18.07;;;16.17;;
27161;SDS011;54464;50.558;9.704;2022-07-30T00:03:35;18.93;;;17.27;;
27161;SDS011;54464;50.558;9.704;2022-07-30T00:06:01;20.40;;;18.60;;
27161;SDS011;54464;50.558;9.704;2022-07-30T00:08:27;22.77;;;19.27;;
27161;SDS011;54464;50.558;9.704;2022-07-30T00:10:53;20.03;;;18.13;;
27161;SDS011;54464;50.558;9.704;2022-07-30T00:13:18;19.90;;;18.07;;
27161;SDS011;54464;50.558;9.704;2022-07-30T00:15:44;20.17;;;18.47;;
27161;SDS011;54464;50.558;9.704;2022-07-30T00:18:11;19.87;;;18.07;;
27161;SDS011;54464;50.558;9.704;2022-07-30T00:20:37;18.07;;;16.53;;
27161;SDS011;54464;50.558;9.704;2022-07-30T00:23:04;18.13;;;16.63;;
27161;SDS011;54464;50.558;9.704;2022-07-30T00:25:30;18.80;;;17.10;;
27161;SDS011;54464;50.558;9.704;2022-07-30T00:27:56;18.47;;;16.87;;
27161;SDS011;54464;50.558;9.704;2022-07-30T00:30:22;17.47;;;15.97;;
27161;SDS011;54464;50.558;9.704;2022-07-30T00:32:48;18.07;;;16.57;;
27161;SDS011;54464;50.558;9.704;2022-07-30T00:35:14;17.13;;;15.63;;
27161;SDS011;54464;50.558;9.704;2022-07-30T00:37:40;19.70;;;17.60;;
27161;SDS011;54464;50.558;9.704;2022-07-30T00:40:06;17.00;;;15.50;;
27161;SDS011;54464;50.558;9.704;2022-07-30T00:42:40;16.57;;;15.13;;
27161;SDS011;54464;50.558;9.704;2022-07-30T00:45:11;16.20;;;14.80;;
27161;SDS011;54464;50.558;9.704;2022-07-30T00:47:38;17.40;;;15.73;;
27161;SDS011;54464;50.558;9.704;2022-07-30T00:50:04;16.87;;;15.17;;
27161;SDS011;54464;50.558;9.704;2022-07-30T00:52:32;16.60;;;14.90;;
27161;SDS011;54464;50.558;9.704;2022-07-30T00:54:59;17.63;;;15.83;;
27161;SDS011;54464;50.558;9.704;2022-07-30T00:57:26;18.10;;;16.30;;
27161;SDS011;54464;50.558;9.704;2022-07-30T00:59:52;19.27;;;16.47;;
27161;SDS011;54464;50.558;9.704;2022-07-30T01:02:18;18.60;;;16.87;;
27161;SDS011;54464;50.558;9.704;2022-07-30T01:04:43;19.67;;;17.73;;
27161;SDS011;54464;50.558;9.704;2022-07-30T01:07:09;20.73;;;18.60;;
27161;SDS011;54464;50.558;9.704;2022-07-30T01:09:36;20.20;;;18.10;;
27161;SDS011;54464;50.558;9.704;2022-07-30T01:12:02;21.27;;;19.13;;
27161;SDS011;54464;50.558;9.704;2022-07-30T01:14:30;21.17;;;19.07;;
27161;SDS011;54464;50.558;9.704;2022-07-30T01:16:56;20.40;;;18.27;;
27161;SDS011;54464;50.558;9.704;2022-07-30T01:19:23;19.43;;;17.57;;
27161;SDS011;54464;50.558;9.704;2022-07-30T01:22:49;19.97;;;17.87;;
27161;SDS011;54464;50.558;9.704;2022-07-30T01:28:12;19.63;;;17.77;;
27161;SDS011;54464;50.558;9.704;2022-07-30T01:30:40;20.17;;;18.27;;
27161;SDS011;54464;50.558;9.704;2022-07-30T01:33:12;20.83;;;18.83;;
27161;SDS011;54464;50.558;9.704;2022-07-30T01:35:39;20.73;;;18.63;;
27161;SDS011;54464;50.558;9.704;2022-07-30T01:38:07;19.03;;;17.23;;
27161;SDS011;54464;50.558;9.704;2022-07-30T01:40:35;19.50;;;17.50;;
27161;SDS011;54464;50.558;9.704;2022-07-30T01:43:02;21.07;;;19.17;;
27161;SDS011;54464;50.558;9.704;2022-07-30T01:45:30;22.87;;;20.57;;
27161;SDS011;54464;50.558;9.704;2022-07-30T01:47:57;21.83;;;19.73;;
27161;SDS011;54464;50.558;9.704;2022-07-30T01:50:24;20.80;;;18.83;;
27161;SDS011;54464;50.558;9.704;2022-07-30T01:52:52;20.93;;;18.80;;
27161;SDS011;54464;50.558;9.704;2022-07-30T01:55:20;21.07;;;19.03;;
27161;SDS011;54464;50.558;9.704;2022-07-30T01:57:54;19.70;;;17.90;;
27161;SDS011;54464;50.558;9.704;2022-07-30T02:00:21;19.73;;;17.83;;
27161;SDS011;54464;50.558;9.704;2022-07-30T02:02:48;19.60;;;17.70;;
27161;SDS011;54464;50.558;9.704;2022-07-30T02:05:14;19.50;;;17.60;;
27161;SDS011;54464;50.558;9.704;2022-07-30T02:10:36;19.03;;;17.13;;
27161;SDS011;54464;50.558;9.704;2022-07-30T02:13:05;21.20;;;19.10;;
27161;SDS011;54464;50.558;9.704;2022-07-30T02:15:36;20.40;;;18.40;;
27161;SDS011;54464;50.558;9.704;2022-07-30T02:18:09;21.07;;;18.90;;
27161;SDS011;54464;50.558;9.704;2022-07-30T02:20:43;23.00;;;19.70;;
27161;SDS011;54464;50.558;9.704;2022-07-30T02:23:11;22.40;;;20.03;;
27161;SDS011;54464;50.558;9.704;2022-07-30T02:25:43;24.73;;;22.07;;
27161;SDS011;54464;50.558;9.704;2022-07-30T02:28:13;25.13;;;22.07;;
27161;SDS011;54464;50.558;9.704;2022-07-30T02:30:51;25.87;;;22.03;;
27161;SDS011;54464;50.558;9.704;2022-07-30T02:33:20;27.50;;;22.70;;
27161;SDS011;54464;50.558;9.704;2022-07-30T02:35:50;26.37;;;22.93;;
27161;SDS011;54464;50.558;9.704;2022-07-30T02:38:18;28.60;;;23.40;;
27161;SDS011;54464;50.558;9.704;2022-07-30T02:40:45;26.73;;;22.63;;
27161;SDS011;54464;50.558;9.704;2022-07-30T02:43:15;28.07;;;22.17;;
27161;SDS011;54464;50.558;9.704;2022-07-30T02:45:45;27.77;;;23.07;;
27161;SDS011;54464;50.558;9.704;2022-07-30T02:48:11;30.03;;;23.23;;
27161;SDS011;54464;50.558;9.704;2022-07-30T02:50:39;28.70;;;23.10;;
27161;SDS011;54464;50.558;9.704;2022-07-30T02:53:07;25.50;;;21.60;;
27161;SDS011;54464;50.558;9.704;2022-07-30T02:55:35;26.87;;;22.30;;
27161;SDS011;54464;50.558;9.704;2022-07-30T02:58:03;25.43;;;21.73;;
27161;SDS011;54464;50.558;9.704;2022-07-30T03:00:30;27.40;;;22.83;;
27161;SDS011;54464;50.558;9.704;2022-07-30T03:02:57;27.87;;;23.03;;
27161;SDS011;54464;50.558;9.704;2022-07-30T03:05:24;29.23;;;23.47;;
27161;SDS011;54464;50.558;9.704;2022-07-30T03:07:51;27.50;;;22.80;;
27161;SDS011;54464;50.558;9.704;2022-07-30T03:10:20;26.00;;;21.23;;
27161;SDS011;54464;50.558;9.704;2022-07-30T03:12:46;25.67;;;20.60;;
27161;SDS011;54464;50.558;9.704;2022-07-30T03:15:15;24.30;;;20.73;;
27161;SDS011;54464;50.558;9.704;2022-07-30T03:17:42;21.53;;;19.23;;
27161;SDS011;54464;50.558;9.704;2022-07-30T03:20:12;23.93;;;20.33;;
27161;SDS011;54464;50.558;9.704;2022-07-30T03:22:43;25.80;;;20.27;;
27161;SDS011;54464;50.558;9.704;2022-07-30T03:25:12;23.47;;;20.93;;
27161;SDS011;54464;50.558;9.704;2022-07-30T03:27:40;23.47;;;20.50;;
27161;SDS011;54464;50.558;9.704;2022-07-30T03:30:08;23.47;;;20.43;;
27161;SDS011;54464;50.558;9.704;2022-07-30T03:32:34;23.67;;;20.97;;
27161;SDS011;54464;50.558;9.704;2022-07-30T03:35:01;21.53;;;19.33;;
27161;SDS011;54464;50.558;9.704;2022-07-30T03:37:27;22.10;;;19.77;;
27161;SDS011;54464;50.558;9.704;2022-07-30T03:39:55;23.53;;;20.90;;
27161;SDS011;54464;50.558;9.704;2022-07-30T03:42:22;25.97;;;20.70;;
27161;SDS011;54464;50.558;9.704;2022-07-30T03:44:49;22.97;;;20.47;;
27161;SDS011;54464;50.558;9.704;2022-07-30T03:47:15;24.17;;;21.57;;
27161;SDS011;54464;50.558;9.704;2022-07-30T03:49:43;24.63;;;20.73;;
27161;SDS011;54464;50.558;9.704;2022-07-30T03:52:09;24.90;;;22.30;;
27161;SDS011;54464;50.558;9.704;2022-07-30T03:54:35;24.70;;;22.13;;
27161;SDS011;54464;50.558;9.704;2022-07-30T03:57:01;25.47;;;22.87;;
27161;SDS011;54464;50.558;9.704;2022-07-30T03:59:29;25.37;;;22.77;;
27161;SDS011;54464;50.558;9.704;2022-07-30T04:01:59;25.60;;;22.97;;
27161;SDS011;54464;50.558;9.704;2022-07-30T04:04:26;26.70;;;23.70;;
27161;SDS011;54464;50.558;9.704;2022-07-30T04:06:52;27.70;;;24.80;;
27161;SDS011;54464;50.558;9.704;2022-07-30T04:09:17;26.40;;;23.70;;
27161;SDS011;54464;50.558;9.704;2022-07-30T04:11:44;27.97;;;25.07;;
27161;SDS011;54464;50.558;9.704;2022-07-30T04:14:10;27.47;;;24.63;;
27161;SDS011;54464;50.558;9.704;2022-07-30T04:16:41;26.23;;;23.53;;
27161;SDS011;54464;50.558;9.704;2022-07-30T04:22:10;25.13;;;22.57;;
27161;SDS011;54464;50.558;9.704;2022-07-30T04:24:40;28.43;;;24.93;;
27161;SDS011;54464;50.558;9.704;2022-07-30T04:27:08;29.50;;;26.20;;
27161;SDS011;54464;50.558;9.704;2022-07-30T04:29:35;30.60;;;26.83;;
27161;SDS011;54464;50.558;9.704;2022-07-30T04:32:01;32.77;;;27.90;;
27161;SDS011;54464;50.558;9.704;2022-07-30T04:34:27;31.10;;;27.70;;
27161;SDS011;54464;50.558;9.704;2022-07-30T04:36:52;31.97;;;27.97;;
27161;SDS011;54464;50.558;9.704;2022-07-30T04:39:18;32.00;;;28.43;;
27161;SDS011;54464;50.558;9.704;2022-07-30T04:41:44;32.97;;;29.37;;
27161;SDS011;54464;50.558;9.704;2022-07-30T04:44:09;33.20;;;29.00;;
27161;SDS011;54464;50.558;9.704;2022-07-30T04:46:35;29.20;;;26.20;;
27161;SDS011;54464;50.558;9.704;2022-07-30T04:49:01;27.90;;;24.97;;
27161;SDS011;54464;50.558;9.704;2022-07-30T04:51:33;27.80;;;24.80;;
27161;SDS011;54464;50.558;9.704;2022-07-30T04:54:00;30.30;;;26.50;;
27161;SDS011;54464;50.558;9.704;2022-07-30T04:56:29;30.80;;;27.50;;
27161;SDS011;54464;50.558;9.704;2022-07-30T04:58:57;28.00;;;25.00;;
27161;SDS011;54464;50.558;9.704;2022-07-30T05:01:24;29.77;;;26.70;;
27161;SDS011;54464;50.558;9.704;2022-07-30T05:03:55;29.00;;;25.90;;
27161;SDS011;54464;50.558;9.704;2022-07-30T05:06:23;31.07;;;27.90;;
27161;SDS011;54464;50.558;9.704;2022-07-30T05:08:49;28.47;;;25.47;;
27161;SDS011;54464;50.558;9.704;2022-07-30T05:11:15;30.87;;;27.57;;
27161;SDS011;54464;50.558;9.704;2022-07-30T05:13:42;31.50;;;28.20;;
27161;SDS011;54464;50.558;9.704;2022-07-30T05:16:08;32.43;;;27.43;;
27161;SDS011;54464;50.558;9.704;2022-07-30T05:18:35;30.37;;;27.07;;
27161;SDS011;54464;50.558;9.704;2022-07-30T05:21:02;28.87;;;25.87;;
27161;SDS011;54464;50.558;9.704;2022-07-30T05:23:29;28.20;;;25.27;;
27161;SDS011;54464;50.558;9.704;2022-07-30T05:25:55;30.33;;;27.00;;
27161;SDS011;54464;50.558;9.704;2022-07-30T05:28:20;29.50;;;26.30;;
27161;SDS011;54464;50.558;9.704;2022-07-30T05:30:46;28.77;;;25.67;;
27161;SDS011;54464;50.558;9.704;2022-07-30T05:33:13;28.53;;;25.57;;
27161;SDS011;54464;50.558;9.704;2022-07-30T05:35:38;28.40;;;25.23;;
27161;SDS011;54464;50.558;9.704;2022-07-30T05:38:04;25.47;;;22.97;;
27161;SDS011;54464;50.558;9.704;2022-07-30T05:40:30;24.30;;;21.90;;
27161;SDS011;54464;50.558;9.704;2022-07-30T05:42:55;24.53;;;22.13;;
27161;SDS011;54464;50.558;9.704;2022-07-30T05:45:21;25.70;;;23.10;;
27161;SDS011;54464;50.558;9.704;2022-07-30T05:47:47;22.83;;;20.63;;
27161;SDS011;54464;50.558;9.704;2022-07-30T05:50:12;22.83;;;20.80;;
27161;SDS011;54464;50.558;9.704;2022-07-30T05:52:38;22.03;;;19.83;;
27161;SDS011;54464;50.558;9.704;2022-07-30T05:55:04;20.33;;;18.43;;
27161;SDS011;54464;50.558;9.704;2022-07-30T05:57:30;21.57;;;19.33;;
27161;SDS011;54464;50.558;9.704;2022-07-30T05:59:59;24.27;;;21.77;;
27161;SDS011;54464;50.558;9.704;2022-07-30T06:02:25;24.13;;;21.53;;
27161;SDS011;54464;50.558;9.704;2022-07-30T06:04:51;24.97;;;22.47;;
27161;SDS011;54464;50.558;9.704;2022-07-30T06:07:16;24.57;;;21.97;;
27161;SDS011;54464;50.558;9.704;2022-07-30T06:09:42;27.77;;;24.17;;
27161;SDS011;54464;50.558;9.704;2022-07-30T06:12:08;26.70;;;24.00;;
27161;SDS011;54464;50.558;9.704;2022-07-30T06:14:33;27.13;;;24.33;;
27161;SDS011;54464;50.558;9.704;2022-07-30T06:16:59;26.10;;;23.00;;
27161;SDS011;54464;50.558;9.704;2022-07-30T06:19:25;28.27;;;25.23;;
27161;SDS011;54464;50.558;9.704;2022-07-30T06:21:50;27.00;;;24.20;;
27161;SDS011;54464;50.558;9.704;2022-07-30T06:24:16;25.97;;;23.07;;
27161;SDS011;54464;50.558;9.704;2022-07-30T06:26:42;26.03;;;23.33;;
27161;SDS011;54464;50.558;9.704;2022-07-30T06:29:07;25.60;;;22.93;;
27161;SDS011;54464;50.558;9.704;2022-07-30T06:31:33;24.63;;;22.17;;
27161;SDS011;54464;50.558;9.704;2022-07-30T06:33:59;26.17;;;22.70;;
27161;SDS011;54464;50.558;9.704;2022-07-30T06:36:25;24.77;;;21.90;;
27161;SDS011;54464;50.558;9.704;2022-07-30T06:38:50;23.20;;;21.00;;
27161;SDS011;54464;50.558;9.704;2022-07-30T06:41:16;22.23;;;19.83;;
27161;SDS011;54464;50.558;9.704;2022-07-30T06:43:41;21.40;;;19.30;;
27161;SDS011;54464;50.558;9.704;2022-07-30T06:46:07;24.10;;;21.67;;
27161;SDS011;54464;50.558;9.704;2022-07-30T06:48:33;25.77;;;23.13;;
27161;SDS011;54464;50.558;9.704;2022-07-30T06:50:58;25.23;;;22.60;;
27161;SDS011;54464;50.558;9.704;2022-07-30T06:53:24;26.13;;;23.43;;
27161;SDS011;54464;50.558;9.704;2022-07-30T06:55:50;26.00;;;23.40;;
27161;SDS011;54464;50.558;9.704;2022-07-30T06:58:15;24.83;;;22.37;;
27161;SDS011;54464;50.558;9.704;2022-07-30T07:00:41;25.73;;;23.13;;
27161;SDS011;54464;50.558;9.704;2022-07-30T07:03:08;25.40;;;22.87;;
27161;SDS011;54464;50.558;9.704;2022-07-30T07:05:35;24.97;;;22.43;;
27161;SDS011;54464;50.558;9.704;2022-07-30T07:08:00;22.30;;;20.00;;
27161;SDS011;54464;50.558;9.704;2022-07-30T07:10:26;21.10;;;18.70;;
27161;SDS011;54464;50.558;9.704;2022-07-30T07:12:52;20.57;;;18.50;;
27161;SDS011;54464;50.558;9.704;2022-07-30T07:15:19;19.57;;;17.73;;
27161;SDS011;54464;50.558;9.704;2022-07-30T07:17:45;23.00;;;20.63;;
27161;SDS011;54464;50.558;9.704;2022-07-30T07:20:10;20.87;;;18.87;;
27161;SDS011;54464;50.558;9.704;2022-07-30T07:22:36;19.67;;;17.80;;
27161;SDS011;54464;50.558;9.704;2022-07-30T07:25:02;20.70;;;18.90;;
27161;SDS011;54464;50.558;9.704;2022-07-30T07:27:28;19.33;;;17.63;;
27161;SDS011;54464;50.558;9.704;2022-07-30T07:29:54;19.60;;;17.80;;
27161;SDS011;54464;50.558;9.704;2022-07-30T07:32:20;20.00;;;17.97;;
27161;SDS011;54464;50.558;9.704;2022-07-30T07:34:45;20.07;;;18.27;;
27161;SDS011;54464;50.558;9.704;2022-07-30T07:37:11;20.13;;;18.23;;
27161;SDS011;54464;50.558;9.704;2022-07-30T07:39:37;18.30;;;16.70;;
27161;SDS011;54464;50.558;9.704;2022-07-30T07:42:02;19.47;;;17.77;;
27161;SDS011;54464;50.558;9.704;2022-07-30T07:44:28;18.27;;;16.57;;
27161;SDS011;54464;50.558;9.704;2022-07-30T07:46:54;17.00;;;15.50;;
27161;SDS011;54464;50.558;9.704;2022-07-30T07:49:19;17.23;;;15.63;;
27161;SDS011;54464;50.558;9.704;2022-07-30T07:51:45;16.97;;;15.37;;
27161;SDS011;54464;50.558;9.704;2022-07-30T07:54:11;16.10;;;14.70;;
27161;SDS011;54464;50.558;9.704;2022-07-30T07:56:36;17.53;;;15.83;;
27161;SDS011;54464;50.558;9.704;2022-07-30T07:59:02;17.00;;;15.50;;
27161;SDS011;54464;50.558;9.704;2022-07-30T08:01:28;16.07;;;14.50;;
27161;SDS011;54464;50.558;9.704;2022-07-30T08:03:53;16.97;;;15.37;;
27161;SDS011;54464;50.558;9.704;2022-07-30T08:47:53;8.73;;;7.93;;
27161;SDS011;54464;50.558;9.704;2022-07-30T08:50:21;8.60;;;7.80;;
27161;SDS011;54464;50.558;9.704;2022-07-30T08:52:47;9.23;;;8.07;;
27161;SDS011;54464;50.558;9.704;2022-07-30T08:55:14;9.13;;;8.33;;
27161;SDS011;54464;50.558;9.704;2022-07-30T08:57:40;9.60;;;8.70;;
27161;SDS011;54464;50.558;9.704;2022-07-30T09:00:06;9.23;;;8.33;;
27161;SDS011;54464;50.558;9.704;2022-07-30T09:02:33;9.07;;;8.27;;
27161;SDS011;54464;50.558;9.704;2022-07-30T09:04:59;8.87;;;8.17;;
27161;SDS011;54464;50.558;9.704;2022-07-30T09:07:24;8.83;;;8.00;;
27161;SDS011;54464;50.558;9.704;2022-07-30T09:09:50;9.00;;;8.10;;
27161;SDS011;54464;50.558;9.704;2022-07-30T09:12:35;9.47;;;8.50;;
27161;SDS011;54464;50.558;9.704;2022-07-30T09:15:08;9.50;;;8.57;;
27161;SDS011;54464;50.558;9.704;2022-07-30T09:20:12;8.77;;;7.90;;
27161;SDS011;54464;50.558;9.704;2022-07-30T09:22:42;10.53;;;8.53;;
27161;SDS011;54464;50.558;9.704;2022-07-30T09:25:12;9.57;;;8.10;;
27161;SDS011;54464;50.558;9.704;2022-07-30T09:27:48;9.90;;;8.90;;
27161;SDS011;54464;50.558;9.704;2022-07-30T09:30:15;10.97;;;9.00;;
27161;SDS011;54464;50.558;9.704;2022-07-30T09:32:47;9.20;;;8.20;;
27161;SDS011;54464;50.558;9.704;2022-07-30T09:35:15;10.13;;;9.10;;
27161;SDS011;54464;50.558;9.704;2022-07-30T09:37:41;10.20;;;9.23;;
27161;SDS011;54464;50.558;9.704;2022-07-30T09:40:11;9.97;;;8.97;;
27161;SDS011;54464;50.558;9.704;2022-07-30T09:42:41;9.03;;;7.77;;
27161;SDS011;54464;50.558;9.704;2022-07-30T09:45:09;8.40;;;7.60;;
27161;SDS011;54464;50.558;9.704;2022-07-30T09:47:39;8.50;;;7.70;;
27161;SDS011;54464;50.558;9.704;2022-07-30T09:50:11;7.87;;;7.07;;
27161;SDS011;54464;50.558;9.704;2022-07-30T09:52:39;9.97;;;7.43;;
27161;SDS011;54464;50.558;9.704;2022-07-30T09:55:06;7.40;;;6.60;;
27161;SDS011;54464;50.558;9.704;2022-07-30T09:57:33;7.77;;;6.67;;
27161;SDS011;54464;50.558;9.704;2022-07-30T10:00:14;7.10;;;6.40;;
27161;SDS011;54464;50.558;9.704;2022-07-30T10:02:42;6.80;;;6.10;;
27161;SDS011;54464;50.558;9.704;2022-07-30T10:05:11;7.33;;;6.73;;
27161;SDS011;54464;50.558;9.704;2022-07-30T10:07:39;8.07;;;6.00;;
27161;SDS011;54464;50.558;9.704;2022-07-30T10:10:18;6.97;;;6.00;;
27161;SDS011;54464;50.558;9.704;2022-07-30T10:12:48;7.33;;;5.90;;
27161;SDS011;54464;50.558;9.704;2022-07-30T10:15:18;6.83;;;5.87;;
27161;SDS011;54464;50.558;9.704;2022-07-30T10:17:46;9.13;;;5.53;;
27161;SDS011;54464;50.558;9.704;2022-07-30T10:20:13;8.63;;;6.20;;
27161;SDS011;54464;50.558;9.704;2022-07-30T10:22:39;6.67;;;5.13;;
27161;SDS011;54464;50.558;9.704;2022-07-30T10:25:06;8.80;;;5.53;;
27161;SDS011;54464;50.558;9.704;2022-07-30T10:27:33;7.80;;;5.00;;
27161;SDS011;54464;50.558;9.704;2022-07-30T10:30:00;7.20;;;4.80;;
27161;SDS011;54464;50.558;9.704;2022-07-30T10:32:26;6.40;;;4.43;;
27161;SDS011;54464;50.558;9.704;2022-07-30T10:34:52;6.27;;;4.70;;
27161;SDS011;54464;50.558;9.704;2022-07-30T10:37:19;5.10;;;4.30;;
27161;SDS011;54464;50.558;9.704;2022-07-30T10:39:51;5.17;;;4.67;;
27161;SDS011;54464;50.558;9.704;2022-07-30T10:45:17;5.40;;;4.67;;
27161;SDS011;54464;50.558;9.704;2022-07-30T10:47:55;6.50;;;4.93;;
27161;SDS011;54464;50.558;9.704;2022-07-30T10:50:22;5.70;;;4.67;;
27161;SDS011;54464;50.558;9.704;2022-07-30T10:52:53;7.47;;;4.63;;
27161;SDS011;54464;50.558;9.704;2022-07-30T10:55:27;6.40;;;4.67;;
27161;SDS011;54464;50.558;9.704;2022-07-30T10:57:58;6.00;;;4.50;;
27161;SDS011;54464;50.558;9.704;2022-07-30T11:00:30;4.70;;;3.90;;
27161;SDS011;54464;50.558;9.704;2022-07-30T11:03:11;6.23;;;4.23;;
27161;SDS011;54464;50.558;9.704;2022-07-30T11:05:37;5.63;;;4.60;;
27161;SDS011;54464;50.558;9.704;2022-07-30T11:10:58;4.40;;;4.00;;
27161;SDS011;54464;50.558;9.704;2022-07-30T11:16:11;6.72;;;3.33;;
27161;SDS011;54464;50.558;9.704;2022-07-30T11:19:00;8.85;;;3.28;;
27161;SDS011;54464;50.558;9.704;2022-07-30T11:21:28;4.43;;;3.20;;
27161;SDS011;54464;50.558;9.704;2022-07-30T11:23:54;4.13;;;3.15;;
27161;SDS011;54464;50.558;9.704;2022-07-30T11:29:45;5.07;;;3.28;;
27161;SDS011;54464;50.558;9.704;2022-07-30T11:35:09;5.90;;;3.38;;
27161;SDS011;54464;50.558;9.704;2022-07-30T11:40:28;5.90;;;3.17;;
27161;SDS011;54464;50.558;9.704;2022-07-30T11:45:46;5.07;;;3.63;;
27161;SDS011;54464;50.558;9.704;2022-07-30T11:48:14;6.43;;;3.17;;
27161;SDS011;54464;50.558;9.704;2022-07-30T11:50:41;7.85;;;3.50;;
27161;SDS011;54464;50.558;9.704;2022-07-30T11:53:08;6.78;;;3.30;;
27161;SDS011;54464;50.558;9.704;2022-07-30T11:55:40;5.15;;;3.53;;
27161;SDS011;54464;50.558;9.704;2022-07-30T11:58:12;4.05;;;3.25;;
27161;SDS011;54464;50.558;9.704;2022-07-30T12:00:51;4.68;;;3.22;;
27161;SDS011;54464;50.558;9.704;2022-07-30T12:03:18;13.65;;;3.95;;
27161;SDS011;54464;50.558;9.704;2022-07-30T12:05:45;6.05;;;2.85;;
27161;SDS011;54464;50.558;9.704;2022-07-30T12:08:11;6.90;;;3.47;;
27161;SDS011;54464;50.558;9.704;2022-07-30T12:10:38;4.55;;;3.40;;
27161;SDS011;54464;50.558;9.704;2022-07-30T12:13:09;4.90;;;3.70;;
27161;SDS011;54464;50.558;9.704;2022-07-30T12:15:39;4.63;;;3.40;;
27161;SDS011;54464;50.558;9.704;2022-07-30T12:18:07;6.03;;;3.58;;
27161;SDS011;54464;50.558;9.704;2022-07-30T12:20:36;4.85;;;3.47;;
27161;SDS011;54464;50.558;9.704;2022-07-30T12:23:02;5.55;;;3.40;;
27161;SDS011;54464;50.558;9.704;2022-07-30T12:25:41;3.78;;;3.38;;
27161;SDS011;54464;50.558;9.704;2022-07-30T12:28:08;7.85;;;3.55;;
27161;SDS011;54464;50.558;9.704;2022-07-30T12:30:38;4.32;;;3.35;;
27161;SDS011;54464;50.558;9.704;2022-07-30T12:33:05;4.30;;;3.40;;
27161;SDS011;54464;50.558;9.704;2022-07-30T12:38:27;4.60;;;3.80;;
27161;SDS011;54464;50.558;9.704;2022-07-30T12:41:02;5.82;;;3.85;;
27161;SDS011;54464;50.558;9.704;2022-07-30T12:46:27;4.90;;;3.33;;
27161;SDS011;54464;50.558;9.704;2022-07-30T12:48:56;5.77;;;3.30;;
27161;SDS011;54464;50.558;9.704;2022-07-30T12:51:25;5.83;;;3.17;;
27161;SDS011;54464;50.558;9.704;2022-07-30T12:53:53;4.00;;;3.20;;
27161;SDS011;54464;50.558;9.704;2022-07-30T12:56:21;4.57;;;3.20;;
27161;SDS011;54464;50.558;9.704;2022-07-30T12:58:55;6.70;;;3.47;;
27161;SDS011;54464;50.558;9.704;2022-07-30T13:04:13;8.05;;;3.28;;
27161;SDS011;54464;50.558;9.704;2022-07-30T13:06:39;5.85;;;3.33;;
27161;SDS011;54464;50.558;9.704;2022-07-30T13:09:11;6.50;;;3.53;;
27161;SDS011;54464;50.558;9.704;2022-07-30T13:11:45;4.45;;;3.20;;
27161;SDS011;54464;50.558;9.704;2022-07-30T13:14:11;5.75;;;2.97;;
27161;SDS011;54464;50.558;9.704;2022-07-30T13:16:40;4.85;;;3.13;;
27161;SDS011;54464;50.558;9.704;2022-07-30T13:19:06;5.35;;;3.75;;
27161;SDS011;54464;50.558;9.704;2022-07-30T13:21:35;5.43;;;3.00;;
27161;SDS011;54464;50.558;9.704;2022-07-30T13:24:01;15.65;;;10.50;;
27161;SDS011;54464;50.558;9.704;2022-07-30T13:26:28;8.00;;;5.15;;
27161;SDS011;54464;50.558;9.704;2022-07-30T13:28:54;4.68;;;3.40;;
27161;SDS011;54464;50.558;9.704;2022-07-30T13:31:20;4.75;;;3.15;;
27161;SDS011;54464;50.558;9.704;2022-07-30T13:33:46;6.40;;;4.03;;
27161;SDS011;54464;50.558;9.704;2022-07-30T13:36:12;6.05;;;3.53;;
27161;SDS011;54464;50.558;9.704;2022-07-30T13:38:38;6.53;;;4.30;;
27161;SDS011;54464;50.558;9.704;2022-07-30T13:41:04;4.93;;;3.78;;
27161;SDS011;54464;50.558;9.704;2022-07-30T13:43:30;8.02;;;5.30;;
27161;SDS011;54464;50.558;9.704;2022-07-30T13:45:55;6.78;;;4.28;;
27161;SDS011;54464;50.558;9.704;2022-07-30T13:48:21;5.30;;;3.85;;
27161;SDS011;54464;50.558;9.704;2022-07-30T13:50:48;6.30;;;4.00;;
27161;SDS011;54464;50.558;9.704;2022-07-30T13:53:16;4.75;;;3.53;;
27161;SDS011;54464;50.558;9.704;2022-07-30T13:55:42;6.35;;;4.20;;
27161;SDS011;54464;50.558;9.704;2022-07-30T13:58:09;5.63;;;4.75;;
27161;SDS011;54464;50.558;9.704;2022-07-30T14:00:35;6.00;;;5.13;;
27161;SDS011;54464;50.558;9.704;2022-07-30T14:03:04;4.68;;;3.65;;
27161;SDS011;54464;50.558;9.704;2022-07-30T14:05:35;6.85;;;3.80;;
27161;SDS011;54464;50.558;9.704;2022-07-30T14:08:02;4.47;;;3.95;;
27161;SDS011;54464;50.558;9.704;2022-07-30T14:10:28;7.68;;;3.80;;
27161;SDS011;54464;50.558;9.704;2022-07-30T14:12:55;5.68;;;3.83;;
27161;SDS011;54464;50.558;9.704;2022-07-30T14:15:22;7.38;;;3.80;;
27161;SDS011;54464;50.558;9.704;2022-07-30T14:17:49;4.55;;;3.72;;
27161;SDS011;54464;50.558;9.704;2022-07-30T14:20:15;7.55;;;3.88;;
27161;SDS011;54464;50.558;9.704;2022-07-30T14:22:42;6.47;;;4.10;;
27161;SDS011;54464;50.558;9.704;2022-07-30T14:25:08;5.00;;;3.92;;
27161;SDS011;54464;50.558;9.704;2022-07-30T14:27:34;6.38;;;3.83;;
27161;SDS011;54464;50.558;9.704;2022-07-30T14:30:01;4.88;;;4.20;;
27161;SDS011;54464;50.558;9.704;2022-07-30T14:32:27;3.88;;;3.53;;
27161;SDS011;54464;50.558;9.704;2022-07-30T14:34:53;5.03;;;3.53;;
27161;SDS011;54464;50.558;9.704;2022-07-30T14:37:19;5.07;;;3.47;;
27161;SDS011;54464;50.558;9.704;2022-07-30T14:39:45;5.60;;;3.58;;
27161;SDS011;54464;50.558;9.704;2022-07-30T14:42:10;6.13;;;3.97;;
27161;SDS011;54464;50.558;9.704;2022-07-30T14:44:36;4.78;;;3.67;;
27161;SDS011;54464;50.558;9.704;2022-07-30T14:47:02;6.65;;;3.70;;
27161;SDS011;54464;50.558;9.704;2022-07-30T14:49:28;5.10;;;3.80;;
27161;SDS011;54464;50.558;9.704;2022-07-30T14:51:53;4.60;;;3.70;;
27161;SDS011;54464;50.558;9.704;2022-07-30T14:54:19;5.10;;;3.92;;
27161;SDS011;54464;50.558;9.704;2022-07-30T14:56:46;6.13;;;3.65;;
27161;SDS011;54464;50.558;9.704;2022-07-30T14:59:12;4.95;;;3.55;;
27161;SDS011;54464;50.558;9.704;2022-07-30T15:01:38;4.13;;;3.50;;
27161;SDS011;54464;50.558;9.704;2022-07-30T15:04:05;5.10;;;3.45;;
27161;SDS011;54464;50.558;9.704;2022-07-30T15:06:33;5.13;;;3.67;;
27161;SDS011;54464;50.558;9.704;2022-07-30T15:08:59;4.07;;;3.40;;
27161;SDS011;54464;50.558;9.704;2022-07-30T15:11:25;3.85;;;3.38;;
27161;SDS011;54464;50.558;9.704;2022-07-30T15:13:51;4.47;;;3.22;;
27161;SDS011;54464;50.558;9.704;2022-07-30T15:16:17;4.57;;;3.15;;
27161;SDS011;54464;50.558;9.704;2022-07-30T15:18:43;4.55;;;3.40;;
27161;SDS011;54464;50.558;9.704;2022-07-30T15:21:09;3.83;;;3.30;;
27161;SDS011;54464;50.558;9.704;2022-07-30T15:23:36;4.45;;;3.13;;
27161;SDS011;54464;50.558;9.704;2022-07-30T15:26:02;3.95;;;3.38;;
27161;SDS011;54464;50.558;9.704;2022-07-30T15:28:28;3.92;;;3.15;;
27161;SDS011;54464;50.558;9.704;2022-07-30T15:30:53;3.38;;;3.08;;
27161;SDS011;54464;50.558;9.704;2022-07-30T15:33:19;4.80;;;3.30;;
27161;SDS011;54464;50.558;9.704;2022-07-30T15:35:45;4.00;;;3.10;;
27161;SDS011;54464;50.558;9.704;2022-07-30T15:38:11;5.22;;;3.25;;
27161;SDS011;54464;50.558;9.704;2022-07-30T15:40:37;3.70;;;3.05;;
27161;SDS011;54464;50.558;9.704;2022-07-30T15:43:03;7.10;;;3.15;;
27161;SDS011;54464;50.558;9.704;2022-07-30T15:45:28;5.22;;;3.20;;
27161;SDS011;54464;50.558;9.704;2022-07-30T15:47:54;4.32;;;3.30;;
27161;SDS011;54464;50.558;9.704;2022-07-30T15:50:21;5.75;;;3.30;;
27161;SDS011;54464;50.558;9.704;2022-07-30T15:52:47;4.63;;;3.35;;
27161;SDS011;54464;50.558;9.704;2022-07-30T15:55:13;4.85;;;3.10;;
27161;SDS011;54464;50.558;9.704;2022-07-30T15:57:39;5.75;;;3.10;;